sensor_id;sensor_type;location;lat;lon;timestamp;pressure;altitude;pressure_sealevel;temperature;humidity
29505;BME280;16452;54.174;12.092;2022-07-10T00:00:01;101736.66;;;18.34;79.13
29505;BME280;16452;54.174;12.092;2022-07-10T00:02:27;101731.16;;;18.24;77.55
29505;BME280;16452;54.174;12.092;2022-07-10T00:04:53;101726.94;;;18.34;77.17
29505;BME280;16452;54.174;12.092;2022-07-10T00:07:19;101723.75;;;18.42;77.37
29505;BME280;16452;54.174;12.092;2022-07-10T00:09:44;101717.75;;;18.40;74.05
29505;BME280;16452;54.174;12.092;2022-07-10T00:12:10;101721.88;;;18.31;75.51
29505;BME280;16452;54.174;12.092;2022-07-10T00:14:36;101713.75;;;18.22;75.89
29505;BME280;16452;54.174;12.092;2022-07-10T00:17:02;101713.94;;;18.06;75.12
29505;BME280;16452;54.174;12.092;2022-07-10T00:19:27;101723.63;;;18.05;76.24
29505;BME280;16452;54.174;12.092;2022-07-10T00:21:53;101727.66;;;18.36;76.99
29505;BME280;16452;54.174;12.092;2022-07-10T00:24:19;101717.09;;;18.24;78.48
29505;BME280;16452;54.174;12.092;2022-07-10T00:26:44;101721.31;;;18.01;82.23
29505;BME280;16452;54.174;12.092;2022-07-10T00:29:12;101712.16;;;18.19;79.13
29505;BME280;16452;54.174;12.092;2022-07-10T00:31:37;101703.09;;;17.98;78.77
29505;BME280;16452;54.174;12.092;2022-07-10T00:34:03;101704.34;;;18.18;79.95
29505;BME280;16452;54.174;12.092;2022-07-10T00:36:29;101716.16;;;17.87;80.55
29505;BME280;16452;54.174;12.092;2022-07-10T00:38:54;101699.91;;;18.05;80.90
29505;BME280;16452;54.174;12.092;2022-07-10T00:41:20;101699.78;;;17.94;78.52
29505;BME280;16452;54.174;12.092;2022-07-10T00:43:57;101696.22;;;18.08;74.89
29505;BME280;16452;54.174;12.092;2022-07-10T00:46:25;101693.91;;;17.91;74.88
29505;BME280;16452;54.174;12.092;2022-07-10T00:48:52;101704.03;;;18.10;74.74
29505;BME280;16452;54.174;12.092;2022-07-10T00:51:21;101689.59;;;18.15;74.53
29505;BME280;16452;54.174;12.092;2022-07-10T00:53:50;101681.91;;;17.99;76.93
29505;BME280;16452;54.174;12.092;2022-07-10T00:56:24;101683.75;;;18.48;75.43
29505;BME280;16452;54.174;12.092;2022-07-10T00:58:51;101687.78;;;18.16;72.48
29505;BME280;16452;54.174;12.092;2022-07-10T01:01:17;101681.69;;;18.15;73.69
29505;BME280;16452;54.174;12.092;2022-07-10T01:03:44;101684.09;;;18.05;73.06
29505;BME280;16452;54.174;12.092;2022-07-10T01:06:14;101679.88;;;18.03;74.77
29505;BME280;16452;54.174;12.092;2022-07-10T01:08:41;101699.09;;;18.05;76.18
29505;BME280;16452;54.174;12.092;2022-07-10T01:11:08;101684.38;;;17.88;74.41
29505;BME280;16452;54.174;12.092;2022-07-10T01:13:34;101685.66;;;17.83;75.12
29505;BME280;16452;54.174;12.092;2022-07-10T01:16:00;101680.19;;;17.98;74.97
29505;BME280;16452;54.174;12.092;2022-07-10T01:18:26;101686.81;;;18.29;73.43
29505;BME280;16452;54.174;12.092;2022-07-10T01:20:53;101670.38;;;18.26;71.33
29505;BME280;16452;54.174;12.092;2022-07-10T01:23:20;101673.09;;;18.37;72.66
29505;BME280;16452;54.174;12.092;2022-07-10T01:25:46;101666.25;;;17.96;72.22
29505;BME280;16452;54.174;12.092;2022-07-10T01:28:12;101672.16;;;18.00;74.25
29505;BME280;16452;54.174;12.092;2022-07-10T01:30:38;101672.69;;;18.18;72.03
29505;BME280;16452;54.174;12.092;2022-07-10T01:33:04;101660.91;;;17.98;69.97
29505;BME280;16452;54.174;12.092;2022-07-10T01:35:30;101674.28;;;18.20;72.75
29505;BME280;16452;54.174;12.092;2022-07-10T01:37:56;101657.78;;;18.42;72.94
29505;BME280;16452;54.174;12.092;2022-07-10T01:40:22;101653.78;;;18.36;69.09
29505;BME280;16452;54.174;12.092;2022-07-10T01:42:47;101654.94;;;18.45;69.65
29505;BME280;16452;54.174;12.092;2022-07-10T01:45:16;101648.84;;;18.19;72.73
29505;BME280;16452;54.174;12.092;2022-07-10T01:47:42;101656.16;;;18.03;71.32
29505;BME280;16452;54.174;12.092;2022-07-10T01:50:09;101651.41;;;18.08;71.62
29505;BME280;16452;54.174;12.092;2022-07-10T01:52:35;101649.38;;;18.24;73.35
29505;BME280;16452;54.174;12.092;2022-07-10T01:55:02;101658.63;;;18.42;73.74
29505;BME280;16452;54.174;12.092;2022-07-10T01:57:28;101653.59;;;18.01;74.03
29505;BME280;16452;54.174;12.092;2022-07-10T01:59:54;101653.00;;;18.11;74.27
29505;BME280;16452;54.174;12.092;2022-07-10T02:02:19;101652.13;;;17.97;73.78
29505;BME280;16452;54.174;12.092;2022-07-10T02:04:45;101645.38;;;18.06;72.40
29505;BME280;16452;54.174;12.092;2022-07-10T02:07:19;101644.06;;;18.37;72.16
29505;BME280;16452;54.174;12.092;2022-07-10T02:09:47;101647.16;;;18.05;73.98
29505;BME280;16452;54.174;12.092;2022-07-10T02:12:14;101650.44;;;18.22;76.16
29505;BME280;16452;54.174;12.092;2022-07-10T02:14:41;101651.81;;;17.89;76.61
29505;BME280;16452;54.174;12.092;2022-07-10T02:17:08;101651.47;;;17.94;79.55
29505;BME280;16452;54.174;12.092;2022-07-10T02:19:34;101655.59;;;17.73;76.30
29505;BME280;16452;54.174;12.092;2022-07-10T02:22:00;101652.75;;;17.88;77.55
29505;BME280;16452;54.174;12.092;2022-07-10T02:24:26;101644.97;;;17.87;76.44
29505;BME280;16452;54.174;12.092;2022-07-10T02:26:52;101635.47;;;17.84;77.38
29505;BME280;16452;54.174;12.092;2022-07-10T02:29:18;101644.53;;;18.05;78.55
29505;BME280;16452;54.174;12.092;2022-07-10T02:31:44;101633.16;;;17.92;77.60
29505;BME280;16452;54.174;12.092;2022-07-10T02:34:11;101630.31;;;17.70;78.06
29505;BME280;16452;54.174;12.092;2022-07-10T02:36:38;101635.59;;;17.70;78.71
29505;BME280;16452;54.174;12.092;2022-07-10T02:39:05;101628.81;;;18.04;77.15
29505;BME280;16452;54.174;12.092;2022-07-10T02:41:32;101634.00;;;17.80;76.24
29505;BME280;16452;54.174;12.092;2022-07-10T02:43:57;101636.47;;;17.56;77.94
29505;BME280;16452;54.174;12.092;2022-07-10T02:46:23;101633.25;;;17.78;76.40
29505;BME280;16452;54.174;12.092;2022-07-10T02:48:49;101637.25;;;17.71;77.32
29505;BME280;16452;54.174;12.092;2022-07-10T02:51:14;101637.78;;;18.01;76.99
29505;BME280;16452;54.174;12.092;2022-07-10T02:53:40;101644.66;;;17.91;77.06
29505;BME280;16452;54.174;12.092;2022-07-10T02:56:06;101644.22;;;17.97;76.63
29505;BME280;16452;54.174;12.092;2022-07-10T02:58:33;101647.50;;;17.49;77.75
29505;BME280;16452;54.174;12.092;2022-07-10T03:00:59;101647.16;;;17.68;78.05
29505;BME280;16452;54.174;12.092;2022-07-10T03:03:25;101655.19;;;17.39;79.46
29505;BME280;16452;54.174;12.092;2022-07-10T03:05:51;101643.50;;;17.43;78.51
29505;BME280;16452;54.174;12.092;2022-07-10T03:08:17;101641.75;;;17.56;76.90
29505;BME280;16452;54.174;12.092;2022-07-10T03:10:42;101652.78;;;17.49;77.63
29505;BME280;16452;54.174;12.092;2022-07-10T03:13:08;101652.03;;;17.99;76.91
29505;BME280;16452;54.174;12.092;2022-07-10T03:15:34;101661.50;;;17.89;78.21
29505;BME280;16452;54.174;12.092;2022-07-10T03:18:00;101647.75;;;17.58;77.95
29505;BME280;16452;54.174;12.092;2022-07-10T03:20:26;101659.97;;;17.20;78.63
29505;BME280;16452;54.174;12.092;2022-07-10T03:22:51;101660.19;;;17.56;77.43
29505;BME280;16452;54.174;12.092;2022-07-10T03:25:17;101644.97;;;17.87;76.89
29505;BME280;16452;54.174;12.092;2022-07-10T03:27:43;101644.97;;;17.35;78.68
29505;BME280;16452;54.174;12.092;2022-07-10T03:30:09;101647.59;;;17.74;78.10
29505;BME280;16452;54.174;12.092;2022-07-10T03:32:35;101640.78;;;17.57;77.49
29505;BME280;16452;54.174;12.092;2022-07-10T03:35:02;101647.78;;;17.71;75.61
29505;BME280;16452;54.174;12.092;2022-07-10T03:37:27;101650.22;;;17.74;75.41
29505;BME280;16452;54.174;12.092;2022-07-10T03:39:53;101658.31;;;17.71;75.43
29505;BME280;16452;54.174;12.092;2022-07-10T03:42:19;101657.63;;;17.42;76.24
29505;BME280;16452;54.174;12.092;2022-07-10T03:44:45;101654.34;;;17.39;76.73
29505;BME280;16452;54.174;12.092;2022-07-10T03:47:11;101655.81;;;17.43;77.05
29505;BME280;16452;54.174;12.092;2022-07-10T03:49:37;101666.31;;;17.57;77.16
29505;BME280;16452;54.174;12.092;2022-07-10T03:52:05;101660.56;;;17.77;76.87
29505;BME280;16452;54.174;12.092;2022-07-10T03:54:34;101675.13;;;18.08;77.61
29505;BME280;16452;54.174;12.092;2022-07-10T03:56:59;101659.19;;;17.72;75.58
29505;BME280;16452;54.174;12.092;2022-07-10T03:59:44;101671.75;;;17.54;75.43
29505;BME280;16452;54.174;12.092;2022-07-10T04:02:10;101662.13;;;17.67;73.81
29505;BME280;16452;54.174;12.092;2022-07-10T04:04:36;101664.03;;;17.90;74.64
29505;BME280;16452;54.174;12.092;2022-07-10T04:07:02;101668.03;;;17.83;74.54
29505;BME280;16452;54.174;12.092;2022-07-10T04:09:30;101676.59;;;18.12;73.12
29505;BME280;16452;54.174;12.092;2022-07-10T04:11:55;101669.00;;;18.82;72.91
29505;BME280;16452;54.174;12.092;2022-07-10T04:14:21;101660.00;;;19.91;68.97
29505;BME280;16452;54.174;12.092;2022-07-10T04:16:47;101653.63;;;20.27;68.00
29505;BME280;16452;54.174;12.092;2022-07-10T04:19:13;101653.63;;;20.71;65.61
29505;BME280;16452;54.174;12.092;2022-07-10T04:21:38;101657.44;;;19.78;69.66
29505;BME280;16452;54.174;12.092;2022-07-10T04:24:04;101654.81;;;19.89;70.30
29505;BME280;16452;54.174;12.092;2022-07-10T04:26:30;101646.63;;;19.92;69.16
29505;BME280;16452;54.174;12.092;2022-07-10T04:28:56;101650.63;;;19.52;71.08
29505;BME280;16452;54.174;12.092;2022-07-10T04:31:21;101651.44;;;18.94;71.33
29505;BME280;16452;54.174;12.092;2022-07-10T04:33:47;101646.50;;;18.89;72.59
29505;BME280;16452;54.174;12.092;2022-07-10T04:36:13;101648.28;;;18.88;72.95
29505;BME280;16452;54.174;12.092;2022-07-10T04:38:39;101645.97;;;19.32;71.79
29505;BME280;16452;54.174;12.092;2022-07-10T04:41:05;101647.22;;;19.39;70.14
29505;BME280;16452;54.174;12.092;2022-07-10T04:43:31;101638.38;;;19.16;71.03
29505;BME280;16452;54.174;12.092;2022-07-10T04:45:56;101647.63;;;18.98;71.67
29505;BME280;16452;54.174;12.092;2022-07-10T04:48:22;101640.09;;;19.04;71.58
29505;BME280;16452;54.174;12.092;2022-07-10T04:50:48;101653.06;;;19.07;71.46
29505;BME280;16452;54.174;12.092;2022-07-10T04:53:14;101654.13;;;19.05;71.89
29505;BME280;16452;54.174;12.092;2022-07-10T04:55:39;101650.88;;;18.77;73.49
29505;BME280;16452;54.174;12.092;2022-07-10T04:58:05;101652.72;;;18.88;73.55
29505;BME280;16452;54.174;12.092;2022-07-10T05:00:31;101658.94;;;19.35;71.77
29505;BME280;16452;54.174;12.092;2022-07-10T05:02:56;101654.81;;;18.96;71.84
29505;BME280;16452;54.174;12.092;2022-07-10T05:05:22;101665.91;;;19.48;70.00
29505;BME280;16452;54.174;12.092;2022-07-10T05:07:48;101662.22;;;19.62;68.01
29505;BME280;16452;54.174;12.092;2022-07-10T05:10:14;101664.66;;;19.17;68.94
29505;BME280;16452;54.174;12.092;2022-07-10T05:12:40;101663.41;;;19.10;68.78
29505;BME280;16452;54.174;12.092;2022-07-10T05:15:06;101666.34;;;19.77;67.87
29505;BME280;16452;54.174;12.092;2022-07-10T05:17:33;101653.66;;;20.60;64.27
29505;BME280;16452;54.174;12.092;2022-07-10T05:19:58;101667.09;;;20.90;64.05
29505;BME280;16452;54.174;12.092;2022-07-10T05:22:24;101664.97;;;21.16;63.34
29505;BME280;16452;54.174;12.092;2022-07-10T05:24:50;101665.19;;;20.15;66.95
29505;BME280;16452;54.174;12.092;2022-07-10T05:27:16;101659.38;;;20.09;66.20
29505;BME280;16452;54.174;12.092;2022-07-10T05:29:46;101668.56;;;19.36;69.88
29505;BME280;16452;54.174;12.092;2022-07-10T05:32:13;101672.22;;;19.22;70.91
29505;BME280;16452;54.174;12.092;2022-07-10T05:34:39;101676.91;;;18.95;70.98
29505;BME280;16452;54.174;12.092;2022-07-10T05:37:05;101671.94;;;19.38;70.78
29505;BME280;16452;54.174;12.092;2022-07-10T05:39:31;101679.59;;;19.29;71.73
29505;BME280;16452;54.174;12.092;2022-07-10T05:42:02;101678.69;;;19.42;68.56
29505;BME280;16452;54.174;12.092;2022-07-10T05:44:28;101677.00;;;19.64;68.67
29505;BME280;16452;54.174;12.092;2022-07-10T05:46:54;101676.44;;;19.83;67.42
29505;BME280;16452;54.174;12.092;2022-07-10T05:49:19;101676.09;;;19.99;68.26
29505;BME280;16452;54.174;12.092;2022-07-10T05:51:45;101676.66;;;19.80;68.86
29505;BME280;16452;54.174;12.092;2022-07-10T05:54:11;101681.53;;;19.04;70.84
29505;BME280;16452;54.174;12.092;2022-07-10T05:56:37;101685.97;;;19.86;70.08
29505;BME280;16452;54.174;12.092;2022-07-10T05:59:02;101685.47;;;19.46;69.30
29505;BME280;16452;54.174;12.092;2022-07-10T06:01:28;101684.56;;;19.69;69.16
29505;BME280;16452;54.174;12.092;2022-07-10T06:03:54;101684.25;;;19.74;68.88
29505;BME280;16452;54.174;12.092;2022-07-10T06:06:20;101672.63;;;19.28;69.47
29505;BME280;16452;54.174;12.092;2022-07-10T06:08:46;101676.94;;;19.06;70.76
29505;BME280;16452;54.174;12.092;2022-07-10T06:11:12;101688.00;;;19.47;70.22
29505;BME280;16452;54.174;12.092;2022-07-10T06:13:39;101689.81;;;19.10;70.41
29505;BME280;16452;54.174;12.092;2022-07-10T06:16:05;101682.53;;;19.38;70.12
29505;BME280;16452;54.174;12.092;2022-07-10T06:18:31;101687.66;;;19.04;72.44
29505;BME280;16452;54.174;12.092;2022-07-10T06:20:57;101681.22;;;19.43;72.14
29505;BME280;16452;54.174;12.092;2022-07-10T06:23:23;101684.16;;;19.51;69.56
29505;BME280;16452;54.174;12.092;2022-07-10T06:25:49;101690.16;;;19.29;71.13
29505;BME280;16452;54.174;12.092;2022-07-10T06:28:21;101684.09;;;19.64;69.83
29505;BME280;16452;54.174;12.092;2022-07-10T06:30:47;101684.03;;;19.29;70.93
29505;BME280;16452;54.174;12.092;2022-07-10T06:33:13;101688.94;;;19.46;71.06
29505;BME280;16452;54.174;12.092;2022-07-10T06:35:38;101677.44;;;19.35;71.61
29505;BME280;16452;54.174;12.092;2022-07-10T06:38:04;101680.53;;;19.28;72.76
29505;BME280;16452;54.174;12.092;2022-07-10T06:40:30;101698.28;;;19.15;72.82
29505;BME280;16452;54.174;12.092;2022-07-10T06:43:00;101684.81;;;18.58;72.72
29505;BME280;16452;54.174;12.092;2022-07-10T06:45:26;101686.66;;;18.81;73.08
29505;BME280;16452;54.174;12.092;2022-07-10T06:47:52;101696.34;;;18.94;72.98
29505;BME280;16452;54.174;12.092;2022-07-10T06:50:29;101687.41;;;19.07;72.86
29505;BME280;16452;54.174;12.092;2022-07-10T06:53:01;101706.97;;;19.05;71.18
29505;BME280;16452;54.174;12.092;2022-07-10T06:55:27;101705.91;;;18.71;73.79
29505;BME280;16452;54.174;12.092;2022-07-10T06:57:54;101690.56;;;19.12;72.29
29505;BME280;16452;54.174;12.092;2022-07-10T07:00:21;101697.84;;;19.21;72.10
29505;BME280;16452;54.174;12.092;2022-07-10T07:02:47;101693.50;;;19.44;71.70
29505;BME280;16452;54.174;12.092;2022-07-10T07:05:13;101696.34;;;18.94;72.23
29505;BME280;16452;54.174;12.092;2022-07-10T07:07:39;101700.06;;;18.91;72.44
29505;BME280;16452;54.174;12.092;2022-07-10T07:10:07;101702.94;;;19.12;73.05
29505;BME280;16452;54.174;12.092;2022-07-10T07:12:33;101701.22;;;18.87;73.23
29505;BME280;16452;54.174;12.092;2022-07-10T07:14:59;101714.25;;;19.14;72.28
29505;BME280;16452;54.174;12.092;2022-07-10T07:17:25;101700.38;;;19.10;72.71
29505;BME280;16452;54.174;12.092;2022-07-10T07:19:59;101709.22;;;19.22;72.02
29505;BME280;16452;54.174;12.092;2022-07-10T07:22:44;101707.41;;;18.99;72.29
29505;BME280;16452;54.174;12.092;2022-07-10T07:25:28;101712.09;;;19.66;71.18
29505;BME280;16452;54.174;12.092;2022-07-10T07:27:54;101712.91;;;19.56;72.63
29505;BME280;16452;54.174;12.092;2022-07-10T07:30:20;101717.44;;;19.78;70.89
29505;BME280;16452;54.174;12.092;2022-07-10T07:32:46;101715.13;;;19.25;72.08
29505;BME280;16452;54.174;12.092;2022-07-10T07:35:15;101713.56;;;19.71;70.85
29505;BME280;16452;54.174;12.092;2022-07-10T07:37:49;101721.16;;;19.51;70.19
29505;BME280;16452;54.174;12.092;2022-07-10T07:40:18;101729.47;;;19.34;71.18
29505;BME280;16452;54.174;12.092;2022-07-10T07:42:52;101723.03;;;19.62;71.16
29505;BME280;16452;54.174;12.092;2022-07-10T07:45:22;101731.78;;;19.39;73.42
29505;BME280;16452;54.174;12.092;2022-07-10T07:47:54;101730.19;;;19.49;70.97
29505;BME280;16452;54.174;12.092;2022-07-10T07:50:27;101726.97;;;19.56;70.26
29505;BME280;16452;54.174;12.092;2022-07-10T07:52:53;101732.03;;;19.23;72.27
29505;BME280;16452;54.174;12.092;2022-07-10T07:55:20;101728.41;;;19.37;72.06
29505;BME280;16452;54.174;12.092;2022-07-10T07:57:47;101729.94;;;19.52;71.41
29505;BME280;16452;54.174;12.092;2022-07-10T08:00:14;101726.34;;;19.88;71.58
29505;BME280;16452;54.174;12.092;2022-07-10T08:02:43;101726.25;;;20.00;71.67
29505;BME280;16452;54.174;12.092;2022-07-10T08:05:09;101725.84;;;19.83;70.00
29505;BME280;16452;54.174;12.092;2022-07-10T08:07:39;101724.69;;;19.98;69.72
29505;BME280;16452;54.174;12.092;2022-07-10T08:10:09;101718.19;;;19.91;70.16
29505;BME280;16452;54.174;12.092;2022-07-10T08:12:35;101718.25;;;19.67;70.79
29505;BME280;16452;54.174;12.092;2022-07-10T08:15:01;101721.06;;;19.88;72.08
29505;BME280;16452;54.174;12.092;2022-07-10T08:17:27;101711.78;;;19.82;71.29
29505;BME280;16452;54.174;12.092;2022-07-10T08:19:54;101709.81;;;20.19;70.22
29505;BME280;16452;54.174;12.092;2022-07-10T08:22:19;101710.66;;;20.20;70.07
29505;BME280;16452;54.174;12.092;2022-07-10T08:24:45;101705.34;;;19.97;71.04
29505;BME280;16452;54.174;12.092;2022-07-10T08:27:11;101712.41;;;19.86;70.68
29505;BME280;16452;54.174;12.092;2022-07-10T08:29:38;101714.22;;;19.85;70.49
29505;BME280;16452;54.174;12.092;2022-07-10T08:32:04;101713.63;;;20.04;70.86
29505;BME280;16452;54.174;12.092;2022-07-10T08:34:30;101715.53;;;19.80;70.92
29505;BME280;16452;54.174;12.092;2022-07-10T08:36:58;101708.41;;;19.80;71.10
29505;BME280;16452;54.174;12.092;2022-07-10T08:39:24;101713.22;;;19.86;70.71
29505;BME280;16452;54.174;12.092;2022-07-10T08:41:50;101714.69;;;19.90;70.56
29505;BME280;16452;54.174;12.092;2022-07-10T08:44:17;101711.59;;;19.96;70.93
29505;BME280;16452;54.174;12.092;2022-07-10T08:46:44;101725.69;;;20.19;69.12
29505;BME280;16452;54.174;12.092;2022-07-10T08:49:11;101729.09;;;19.27;71.12
29505;BME280;16452;54.174;12.092;2022-07-10T08:54:28;101729.38;;;19.94;71.39
29505;BME280;16452;54.174;12.092;2022-07-10T08:56:57;101723.72;;;19.99;70.15
29505;BME280;16452;54.174;12.092;2022-07-10T08:59:23;101735.13;;;19.53;72.51
29505;BME280;16452;54.174;12.092;2022-07-10T09:01:49;101732.84;;;19.84;72.02
29505;BME280;16452;54.174;12.092;2022-07-10T09:04:22;101735.41;;;19.96;71.45
29505;BME280;16452;54.174;12.092;2022-07-10T09:06:48;101732.88;;;19.95;71.97
29505;BME280;16452;54.174;12.092;2022-07-10T09:09:14;101738.53;;;20.01;72.34
29505;BME280;16452;54.174;12.092;2022-07-10T09:11:41;101724.66;;;19.87;72.38
29505;BME280;16452;54.174;12.092;2022-07-10T09:14:10;101738.63;;;19.89;71.45
29505;BME280;16452;54.174;12.092;2022-07-10T09:16:42;101739.00;;;19.60;72.37
29505;BME280;16452;54.174;12.092;2022-07-10T09:19:25;101737.31;;;19.59;73.20
29505;BME280;16452;54.174;12.092;2022-07-10T09:21:54;101740.69;;;19.61;73.36
29505;BME280;16452;54.174;12.092;2022-07-10T09:24:21;101728.31;;;19.97;71.78
29505;BME280;16452;54.174;12.092;2022-07-10T09:26:59;101735.84;;;20.36;71.00
29505;BME280;16452;54.174;12.092;2022-07-10T09:29:26;101728.00;;;19.78;72.05
29505;BME280;16452;54.174;12.092;2022-07-10T09:31:58;101733.03;;;19.81;72.51
29505;BME280;16452;54.174;12.092;2022-07-10T09:34:50;101731.47;;;20.13;72.79
29505;BME280;16452;54.174;12.092;2022-07-10T09:37:42;101734.03;;;19.80;73.68
29505;BME280;16452;54.174;12.092;2022-07-10T09:40:09;101725.72;;;19.73;72.87
29505;BME280;16452;54.174;12.092;2022-07-10T09:42:37;101734.06;;;20.48;71.98
29505;BME280;16452;54.174;12.092;2022-07-10T09:50:04;101737.13;;;21.09;65.85
29505;BME280;16452;54.174;12.092;2022-07-10T09:52:45;101744.63;;;20.92;67.50
29505;BME280;16452;54.174;12.092;2022-07-10T09:55:13;101739.06;;;21.07;66.11
29505;BME280;16452;54.174;12.092;2022-07-10T09:57:40;101742.53;;;21.29;66.13
29505;BME280;16452;54.174;12.092;2022-07-10T10:00:10;101741.63;;;20.75;67.84
29505;BME280;16452;54.174;12.092;2022-07-10T10:02:37;101744.38;;;21.18;66.76
29505;BME280;16452;54.174;12.092;2022-07-10T10:05:04;101746.22;;;21.38;64.01
29505;BME280;16452;54.174;12.092;2022-07-10T10:07:34;101734.00;;;21.58;64.16
29505;BME280;16452;54.174;12.092;2022-07-10T10:10:04;101752.59;;;20.70;64.68
29505;BME280;16452;54.174;12.092;2022-07-10T10:12:49;101747.03;;;20.62;65.50
29505;BME280;16452;54.174;12.092;2022-07-10T10:15:18;101744.75;;;20.69;66.15
29505;BME280;16452;54.174;12.092;2022-07-10T10:17:45;101740.56;;;20.66;66.96
29505;BME280;16452;54.174;12.092;2022-07-10T10:20:14;101744.16;;;20.65;66.11
29505;BME280;16452;54.174;12.092;2022-07-10T10:22:58;101745.94;;;20.98;65.01
29505;BME280;16452;54.174;12.092;2022-07-10T10:25:26;101751.81;;;21.24;63.12
29505;BME280;16452;54.174;12.092;2022-07-10T10:27:54;101748.81;;;21.06;63.32
29505;BME280;16452;54.174;12.092;2022-07-10T10:30:21;101749.06;;;21.25;61.28
29505;BME280;16452;54.174;12.092;2022-07-10T10:32:46;101753.84;;;21.09;62.61
29505;BME280;16452;54.174;12.092;2022-07-10T10:35:42;101749.09;;;21.46;62.63
29505;BME280;16452;54.174;12.092;2022-07-10T10:38:09;101750.91;;;21.46;62.02
29505;BME280;16452;54.174;12.092;2022-07-10T10:40:35;101750.38;;;21.31;62.36
29505;BME280;16452;54.174;12.092;2022-07-10T10:43:22;101753.13;;;21.93;59.54
29505;BME280;16452;54.174;12.092;2022-07-10T10:45:52;101743.75;;;21.89;58.97
29505;BME280;16452;54.174;12.092;2022-07-10T10:48:18;101740.81;;;21.71;58.70
29505;BME280;16452;54.174;12.092;2022-07-10T10:50:51;101745.16;;;22.14;60.02
29505;BME280;16452;54.174;12.092;2022-07-10T10:53:28;101753.34;;;21.38;61.91
29505;BME280;16452;54.174;12.092;2022-07-10T10:58:26;101747.50;;;22.07;60.18
29505;BME280;16452;54.174;12.092;2022-07-10T11:00:52;101756.13;;;22.00;59.83
29505;BME280;16452;54.174;12.092;2022-07-10T11:03:27;101752.84;;;22.38;57.78
29505;BME280;16452;54.174;12.092;2022-07-10T11:05:53;101754.13;;;22.13;59.58
29505;BME280;16452;54.174;12.092;2022-07-10T11:08:39;101751.22;;;22.46;58.44
29505;BME280;16452;54.174;12.092;2022-07-10T11:13:57;101750.44;;;22.04;58.35
29505;BME280;16452;54.174;12.092;2022-07-10T11:16:24;101758.88;;;22.40;60.37
29505;BME280;16452;54.174;12.092;2022-07-10T11:18:53;101751.03;;;22.38;60.92
29505;BME280;16452;54.174;12.092;2022-07-10T11:21:24;101748.41;;;23.09;59.08
29505;BME280;16452;54.174;12.092;2022-07-10T11:24:11;101744.47;;;23.13;56.24
29505;BME280;16452;54.174;12.092;2022-07-10T11:26:52;101749.81;;;22.73;55.54
29505;BME280;16452;54.174;12.092;2022-07-10T11:29:20;101748.63;;;22.66;57.35
29505;BME280;16452;54.174;12.092;2022-07-10T11:31:53;101751.09;;;22.78;56.63
29505;BME280;16452;54.174;12.092;2022-07-10T11:34:21;101753.19;;;22.54;56.50
29505;BME280;16452;54.174;12.092;2022-07-10T11:36:47;101754.56;;;22.48;57.57
29505;BME280;16452;54.174;12.092;2022-07-10T11:39:14;101760.19;;;22.76;57.72
29505;BME280;16452;54.174;12.092;2022-07-10T11:41:45;101759.25;;;23.46;54.91
29505;BME280;16452;54.174;12.092;2022-07-10T11:44:18;101749.06;;;23.70;56.46
29505;BME280;16452;54.174;12.092;2022-07-10T11:46:46;101753.75;;;23.28;55.57
29505;BME280;16452;54.174;12.092;2022-07-10T11:49:15;101753.88;;;23.26;54.52
29505;BME280;16452;54.174;12.092;2022-07-10T11:51:43;101758.44;;;22.96;55.01
29505;BME280;16452;54.174;12.092;2022-07-10T11:54:17;101751.94;;;22.79;56.86
29505;BME280;16452;54.174;12.092;2022-07-10T11:56:50;101758.59;;;23.13;56.76
29505;BME280;16452;54.174;12.092;2022-07-10T11:59:18;101749.53;;;23.25;52.52
29505;BME280;16452;54.174;12.092;2022-07-10T12:01:51;101754.78;;;23.46;53.89
29505;BME280;16452;54.174;12.092;2022-07-10T12:04:20;101751.66;;;23.31;54.79
29505;BME280;16452;54.174;12.092;2022-07-10T12:06:52;101753.94;;;23.84;51.08
29505;BME280;16452;54.174;12.092;2022-07-10T12:09:23;101745.56;;;23.69;51.27
29505;BME280;16452;54.174;12.092;2022-07-10T12:12:05;101748.03;;;23.71;51.38
29505;BME280;16452;54.174;12.092;2022-07-10T12:14:32;101743.03;;;22.89;53.55
29505;BME280;16452;54.174;12.092;2022-07-10T12:16:59;101747.00;;;23.14;54.05
29505;BME280;16452;54.174;12.092;2022-07-10T12:19:31;101746.50;;;23.49;53.34
29505;BME280;16452;54.174;12.092;2022-07-10T12:22:02;101741.06;;;23.51;52.86
29505;BME280;16452;54.174;12.092;2022-07-10T12:24:28;101743.00;;;23.39;52.81
29505;BME280;16452;54.174;12.092;2022-07-10T12:26:54;101742.16;;;23.48;53.06
29505;BME280;16452;54.174;12.092;2022-07-10T12:29:26;101745.66;;;23.39;55.83
29505;BME280;16452;54.174;12.092;2022-07-10T12:31:54;101745.22;;;23.34;54.12
29505;BME280;16452;54.174;12.092;2022-07-10T12:34:32;101740.88;;;23.33;53.33
29505;BME280;16452;54.174;12.092;2022-07-10T12:37:08;101745.47;;;23.21;54.32
29505;BME280;16452;54.174;12.092;2022-07-10T12:39:45;101748.31;;;23.29;53.31
29505;BME280;16452;54.174;12.092;2022-07-10T12:42:11;101751.53;;;23.23;52.55
29505;BME280;16452;54.174;12.092;2022-07-10T12:44:45;101753.94;;;23.74;52.69
29505;BME280;16452;54.174;12.092;2022-07-10T12:47:18;101755.34;;;23.59;55.32
29505;BME280;16452;54.174;12.092;2022-07-10T12:49:53;101754.50;;;23.78;52.35
29505;BME280;16452;54.174;12.092;2022-07-10T12:52:46;101759.25;;;23.65;53.24
29505;BME280;16452;54.174;12.092;2022-07-10T12:55:20;101753.81;;;23.57;53.35
29505;BME280;16452;54.174;12.092;2022-07-10T12:57:59;101758.66;;;23.23;54.91